Архив погоды в Кочубее

Метеограмма Кочубей
Вторник, 19 Марта
Время местн. Темп Ветер Видим Явления Облачность нижн/средн/верх Атм. давл. Влжн Точка росы ВНГО R Сост. почвы Tg s
Напр Скр Прв ур.ст ур.м изм
06:00 +4° С,С-З 5 - 4 км - облачно 773 771 +0.8 82% +1.2° 1 км - Влажная (без луж) - -
03:00 +4.4° С-З 3 - 4 км - облачно 772 770 0 86% +2.3° 1 км - - - -
00:00 +6.1° С-З 2 - 4 км - облачно 772 770 +0.3 82% +3.2° 1 км - - - -
Понедельник, 18 Марта
Время местн. Темп Ветер Видим Явления Облачность нижн/средн/верх Атм. давл. Влжн Точка росы ВНГО R Сост. почвы Tg s
Напр Скр Прв ур.ст ур.м изм
21:00 +7.9° С,С-З 3 - 4 км - облачно 771 769 +1.1 77% +4.1° 1 км - - - -
18:00 +9.3° З 3 - 4 км - облачно 770 768 +0.8 74% +4.9° 1 км - - - -
15:00 +9° З,С-З 4 - 20 км небо без изменений {дождь} облачно 770 768 +0.5 75% +4.8° 1 км - - - -
12:00 +8.2° З,С-З 5 - 20 км небо без изменений {дождь} облачно 769 767 +0.4 77% +4.4° 1 км - - - -
09:00 +6.4° З 3 - 10 км слабый непрерывный дождь облачно 769 767 +1.5 92% +5.2° 600 м - - - -
06:00 +5.6° З,С-З 2 - 4 км слабый непрерывный дождь облачно 767 765 +2 93% +4.6° 1 км - Влажная (без луж) - -
03:00 +6.2° З,С-З 3 - 4 км слабый непрерывный дождь облачно 765 763 +1.3 95% +5.4° 1 км - - - -
00:00 +6.6° З 2 - 4 км - облачно 764 762 +0.8 85% +4.3° 1 км - - - -
Воскресенье, 17 Марта
Время местн. Темп Ветер Видим Явления Облачность нижн/средн/верх Атм. давл. Влжн Точка росы ВНГО R Сост. почвы Tg s
Напр Скр Прв ур.ст ур.м изм
21:00 +6.8° В,С-В 1 - 4 км - облачно 763 761 +1.7 82% +3.9° 1 км - - - -
18:00 +7.1° В 4 - 4 км - облачно 762 759 +2.6 79% +3.8° 1 км - - - -
15:00 +11° С-В 3 - 20 км - облачно 759 757 -0.1 66% +4.8° 1 км - - - -
12:00 +10.7° С-В 3 - 20 км - облачно 759 757 -0.8 72% +5.9° 1 км - - - -
09:00 +8.1° штиль 0 - 20 км - облачно 760 758 +0.5 82% +5.2° 1 км - - - -
06:00 +6.6° штиль 0 - 4 км - облачно 759 757 +0.5 88% +4.7° 1 км - - - -
03:00 +7° штиль 0 - 4 км - облачно 759 757 -0.3 88% +5.2° 1 км - - - -
00:00 +7.2° В 1 - 4 км - облачно 759 757 +0.1 85% +4.8° 1 км - - - -
Суббота, 16 Марта
Время местн. Темп Ветер Видим Явления Облачность нижн/средн/верх Атм. давл. Влжн Точка росы ВНГО R Сост. почвы Tg s
Напр Скр Прв ур.ст ур.м изм
21:00 +7.7° В 2 - 4 км - облачно 759 757 0 80% +4.4° 1 км - - - -
18:00 +8.9° В 4 - 4 км - облачно 758 756 -0.1 72% +4.2° 1 км - - - -
15:00 +10.7° С 2 - 20 км - облачно 758 756 -1.2 59% +3.1° 1 км - - - -
12:00 +8.8° С,С-З 3 - 20 км - облачно 759 757 -0.8 60% +1.5° 1 км - - - -
09:00 +6.9° З 2 - 20 км - облачно 760 758 +0.3 70% +1.8° 1 км - - - -
06:00 +5.6° штиль 0 - 4 км - облачно 760 758 +0.3 76% +1.7° 1 км - - - -
03:00 +5.8° В 1 - 4 км - облачно 760 758 -1.1 73% +1.4° 1 км - - - -